Detroit, Michigan
Traffic Map
Current Weather Conditions
Detroit, Michigan
Overcast
Overcast
34°
Feels Like: 27°
Wind Chill: 27° Ceiling: 2400
Heat Index: 34° Visibility: 15mi
Dew Point: 25° Wind: 8mph
Humidity: 70% Direction: 50° (NE)
Pressure: 30.09in Gusts: 0mph
Raw Report DataCYQG 262000Z 05007KT 15SM OVC024 01/M04 A3009 RMK SC8 SLP197
Traffic Incident Summary
Active as of:
Severity:
Category:
InformationThere was an issue retrieving the traffic information for this location. Please try a different location or try again shortly.
Advertisements
Track Severe Weather on mobile